Terminal Aerodrome Forecast
Issued by NWS

Home | Current Version | Previous Version | Text Only | Print | Product List | Glossary On
Versions: 1 2 3 4 5 6 7 8 9 10 11 12 13 14 15 16 17 18
000
FTAK31 PAFA 280520
TAFASC
TAF
PASC 280520Z 2806/2906 08015KT 3SM -SN BR BKN006 OVC012
     FM280900 08015KT 1 1/2SM -SN BR BKN006 OVC012
     FM282100 08012KT 4SM -SN BR BKN006 OVC012=

USA.gov is the U.S. government's official web portal to all federal, state and local government web resources and services.